createdAt,value
2023-01-08T00:00:27.804Z,1006.89
2023-01-08T00:10:34.465Z,1006.67
2023-01-08T00:20:42.292Z,1006.78
2023-01-08T00:30:50.021Z,1006.55
2023-01-08T00:40:58.368Z,1006.38
2023-01-08T00:51:05.038Z,1006.26
2023-01-08T01:01:12.386Z,1006.13
2023-01-08T01:11:19.326Z,1006.02
2023-01-08T01:21:27.470Z,1006.09
2023-01-08T01:31:34.919Z,1005.95
2023-01-08T01:41:42.685Z,1006.06
2023-01-08T01:51:50.270Z,1005.75
2023-01-08T02:01:57.372Z,1005.85
2023-01-08T02:12:05.085Z,1005.70
2023-01-08T02:22:12.355Z,1005.43
2023-01-08T02:32:19.846Z,1005.33
2023-01-08T02:42:27.977Z,1005.26
2023-01-08T02:52:35.133Z,1005.09
2023-01-08T03:02:42.623Z,1004.98
2023-01-08T03:12:49.740Z,1004.89
2023-01-08T03:22:56.557Z,1004.75
2023-01-08T03:33:05.108Z,1004.84
2023-01-08T03:43:11.865Z,1004.53
2023-01-08T03:53:19.021Z,1004.73
2023-01-08T04:03:26.180Z,1004.73
2023-01-08T04:13:32.826Z,1004.61
2023-01-08T04:23:40.215Z,1004.69
2023-01-08T04:33:47.586Z,1004.55
2023-01-08T04:43:55.019Z,1004.31
2023-01-08T04:54:02.121Z,1004.39
2023-01-08T05:04:08.952Z,1004.30
2023-01-08T05:14:16.508Z,1004.29
2023-01-08T05:24:23.555Z,1004.20
2023-01-08T05:34:31.316Z,1004.07
2023-01-08T05:44:38.351Z,1004.04
2023-01-08T05:54:45.145Z,1003.96
2023-01-08T06:04:52.600Z,1003.88
2023-01-08T06:14:59.268Z,1003.87
2023-01-08T06:25:05.413Z,1003.83
2023-01-08T06:35:12.300Z,1003.76
2023-01-08T06:45:19.787Z,1003.76
2023-01-08T06:55:26.527Z,1003.74
2023-01-08T07:05:33.736Z,1003.80
2023-01-08T07:15:40.625Z,1003.73
2023-01-08T07:25:47.591Z,1003.76
2023-01-08T07:35:54.834Z,1003.92
2023-01-08T07:46:02.036Z,1003.94
2023-01-08T07:56:08.760Z,1003.91
2023-01-08T08:06:15.926Z,1003.79
2023-01-08T08:16:22.925Z,1003.73
2023-01-08T08:26:29.913Z,1003.78
2023-01-08T08:36:36.616Z,1003.55
2023-01-08T08:46:44.626Z,1003.48
2023-01-08T08:56:52.024Z,1003.46
2023-01-08T09:06:59.328Z,1003.43
2023-01-08T09:17:06.277Z,1003.19
2023-01-08T09:27:13.571Z,1003.17
2023-01-08T09:37:21.042Z,1003.43
2023-01-08T09:47:28.458Z,1003.50
2023-01-08T09:57:35.143Z,1003.62
2023-01-08T10:07:42.165Z,1003.49
2023-01-08T10:17:49.012Z,1003.32
2023-01-08T10:27:56.320Z,1003.16
2023-01-08T10:38:04.375Z,1003.09
2023-01-08T10:48:11.619Z,1002.98
2023-01-08T10:58:18.725Z,1002.90
2023-01-08T11:08:25.726Z,1002.83
2023-01-08T11:18:32.732Z,1002.57
2023-01-08T11:28:39.794Z,1002.44
2023-01-08T11:38:47.174Z,1002.42
2023-01-08T11:48:54.480Z,1002.39
2023-01-08T11:59:01.709Z,1002.23
2023-01-08T12:09:08.589Z,1002.14
2023-01-08T12:19:15.856Z,1002.05
2023-01-08T12:29:23.257Z,1001.84
2023-01-08T12:39:30.724Z,1002.01
2023-01-08T12:49:38.273Z,1002.02
2023-01-08T12:59:45.232Z,1001.79
2023-01-08T13:09:52.086Z,1001.85
2023-01-08T13:19:59.234Z,1001.83
2023-01-08T13:30:06.364Z,1001.78
2023-01-08T13:40:13.256Z,1001.62
2023-01-08T13:50:20.473Z,1001.52
2023-01-08T14:00:27.310Z,1001.46
2023-01-08T14:10:34.424Z,1001.45
2023-01-08T14:20:41.535Z,1001.38
2023-01-08T14:30:48.402Z,1001.39
2023-01-08T14:40:55.327Z,1001.44
2023-01-08T14:51:01.740Z,1001.31
2023-01-08T15:01:08.670Z,1001.34
2023-01-08T15:11:16.009Z,1001.29
2023-01-08T15:21:22.347Z,1001.28
2023-01-08T15:31:28.742Z,1001.24
2023-01-08T15:41:35.799Z,1001.22
2023-01-08T15:51:42.866Z,1001.28
2023-01-08T16:01:49.999Z,1001.27
2023-01-08T16:11:56.703Z,1001.28
2023-01-08T16:22:04.116Z,1001.25
2023-01-08T16:32:11.577Z,1001.12
2023-01-08T16:42:18.282Z,1001.08
2023-01-08T16:52:25.081Z,1001.05
2023-01-08T17:02:32.088Z,1000.88
2023-01-08T17:12:39.722Z,1000.82
2023-01-08T17:22:46.281Z,1000.77
2023-01-08T17:32:53.225Z,1000.62
2023-01-08T17:43:00.497Z,1000.54
2023-01-08T17:53:07.828Z,1000.41
2023-01-08T18:03:15.085Z,1000.38
2023-01-08T18:13:22.334Z,1000.44
2023-01-08T18:23:29.737Z,1000.40
2023-01-08T18:33:36.653Z,1000.40
2023-01-08T18:43:45.629Z,1000.20
2023-01-08T18:53:53.450Z,1000.14
2023-01-08T19:04:00.557Z,1000.06
2023-01-08T19:14:08.071Z,1000.03
2023-01-08T19:24:14.601Z,1000.03
2023-01-08T19:34:21.710Z,1000.01
2023-01-08T19:44:28.922Z,1000.08
2023-01-08T19:54:35.707Z,999.98
2023-01-08T20:04:43.505Z,999.74
2023-01-08T20:14:51.134Z,999.57
2023-01-08T20:24:58.648Z,999.57
2023-01-08T20:35:06.063Z,999.43
2023-01-08T20:45:13.313Z,999.39
2023-01-08T20:55:19.809Z,999.35
2023-01-08T21:05:26.873Z,999.28
2023-01-08T21:15:33.302Z,999.10
2023-01-08T21:25:40.145Z,999.08
2023-01-08T21:35:47.967Z,998.89
2023-01-08T21:45:54.561Z,998.92
2023-01-08T21:56:01.238Z,998.71
2023-01-08T22:06:08.237Z,998.61
2023-01-08T22:16:15.296Z,998.48
2023-01-08T22:26:21.901Z,998.44
2023-01-08T22:36:28.488Z,998.29
2023-01-08T22:46:35.399Z,998.30
2023-01-08T22:56:42.381Z,998.15
2023-01-08T23:06:48.697Z,998.03
2023-01-08T23:16:55.598Z,997.94
2023-01-08T23:27:02.972Z,997.74
2023-01-08T23:37:10.139Z,997.58
2023-01-08T23:47:16.719Z,997.66
2023-01-08T23:57:23.991Z,997.60
